Time;durP1;ratioP1;P1;durP2;ratioP2;P2;SDS_P1;SDS_P2;PMS_P1;PMS_P2;Temp;Humidity;BMP_temperature;BMP_pressure;BME280_temperature;BME280_humidity;BME280_pressure;Samples;Min_cycle;Max_cycle;Signal;HPM_P1;HPM_P2
2022/07/23 00:01:30;;;;;;;0.60;0.40;;;17.30;76.40;;;;;;5038124;28;20041;-81
2022/07/23 00:03:58;;;;;;;2.38;0.60;;;17.20;76.60;;;;;;5035922;28;20131;-80
2022/07/23 00:06:25;;;;;;;1.23;0.40;;;17.20;76.60;;;;;;5029093;28;20049;-80
2022/07/23 00:08:53;;;;;;;1.35;0.52;;;17.20;76.80;;;;;;5030736;28;20110;-80
2022/07/23 00:11:21;;;;;;;1.25;0.40;;;17.20;76.90;;;;;;5037954;28;20094;-80
2022/07/23 00:13:48;;;;;;;1.15;0.60;;;17.10;77.00;;;;;;5036638;28;20481;-80
2022/07/23 00:16:16;;;;;;;1.65;0.60;;;17.10;77.10;;;;;;5037248;28;20076;-80
2022/07/23 00:18:44;;;;;;;1.00;0.63;;;17.10;77.20;;;;;;5036963;28;20052;-80
2022/07/23 00:21:11;;;;;;;0.90;0.45;;;17.00;77.20;;;;;;5049410;28;20048;-80
2022/07/23 00:23:39;;;;;;;1.35;0.50;;;17.00;77.40;;;;;;5028155;28;20606;-80
2022/07/23 00:26:07;;;;;;;0.82;0.50;;;17.00;77.40;;;;;;5007570;28;20514;-79
2022/07/23 00:28:37;;;;;;;1.08;0.50;;;16.90;77.50;;;;;;5047540;28;20087;-78
2022/07/23 00:31:04;;;;;;;2.95;0.70;;;16.90;77.70;;;;;;5024202;28;20073;-78
2022/07/23 00:33:31;;;;;;;1.15;0.55;;;16.90;77.70;;;;;;5057677;28;20474;-79
2022/07/23 00:35:58;;;;;;;1.23;0.40;;;16.90;77.90;;;;;;5012695;28;20048;-79
2022/07/23 00:38:25;;;;;;;1.65;0.90;;;16.90;78.00;;;;;;5042410;28;20082;-79
2022/07/23 00:40:52;;;;;;;1.52;0.63;;;16.80;78.00;;;;;;5041231;28;20036;-79
2022/07/23 00:43:21;;;;;;;1.35;0.60;;;16.80;78.10;;;;;;5023064;28;20111;-79
2022/07/23 00:45:48;;;;;;;0.95;0.47;;;16.80;78.30;;;;;;5049713;28;20646;-79
2022/07/23 00:48:15;;;;;;;2.00;0.57;;;16.70;78.40;;;;;;5024268;28;20040;-79
2022/07/23 00:50:43;;;;;;;1.10;0.65;;;16.70;79.10;;;;;;5019905;28;20048;-79
2022/07/23 00:53:12;;;;;;;1.30;0.60;;;16.70;78.60;;;;;;5039830;28;20048;-78
2022/07/23 00:55:44;;;;;;;1.30;0.60;;;16.70;78.70;;;;;;5044294;28;20052;-78
2022/07/23 00:58:12;;;;;;;2.42;0.50;;;16.70;78.70;;;;;;5055852;28;20060;-79
2022/07/23 01:00:39;;;;;;;3.72;0.80;;;16.60;78.70;;;;;;5039704;28;20045;-80
2022/07/23 01:03:09;;;;;;;1.63;0.70;;;16.60;78.80;;;;;;5040260;28;20049;-79
2022/07/23 01:05:36;;;;;;;0.95;0.52;;;16.60;79.00;;;;;;5041422;28;20082;-79
2022/07/23 01:08:05;;;;;;;1.17;0.50;;;16.50;79.00;;;;;;5064807;28;20489;-79
2022/07/23 01:10:32;;;;;;;1.35;0.63;;;16.50;79.10;;;;;;5062751;28;20557;-79
2022/07/23 01:13:07;;;;;;;2.90;0.65;;;16.50;79.20;;;;;;5040581;28;20036;-79
2022/07/23 01:15:36;;;;;;;1.08;0.55;;;16.50;79.30;;;;;;5039741;28;20062;-79
2022/07/23 01:18:05;;;;;;;1.98;0.60;;;16.40;79.40;;;;;;5056482;28;20089;-79
2022/07/23 01:20:34;;;;;;;1.33;0.60;;;16.40;79.50;;;;;;5040115;28;20059;-80
2022/07/23 01:23:01;;;;;;;2.05;0.90;;;16.40;80.10;;;;;;5038463;28;20092;-79
2022/07/23 01:25:29;;;;;;;1.48;0.70;;;16.40;79.70;;;;;;5039633;28;20087;-80
2022/07/23 01:27:59;;;;;;;1.75;0.60;;;16.40;79.60;;;;;;5018457;28;20562;-80
2022/07/23 01:30:27;;;;;;;2.55;0.63;;;16.40;79.70;;;;;;5058744;28;20098;-79
2022/07/23 01:32:56;;;;;;;0.90;0.57;;;16.40;79.80;;;;;;5040074;28;20048;-79
2022/07/23 01:35:23;;;;;;;1.80;0.90;;;16.40;79.90;;;;;;5039034;28;20044;-80
2022/07/23 01:37:54;;;;;;;1.40;0.80;;;16.30;79.80;;;;;;5020678;28;20044;-80
2022/07/23 01:40:22;;;;;;;2.05;0.70;;;16.30;79.90;;;;;;5025024;28;20044;-79
2022/07/23 01:42:51;;;;;;;2.63;0.70;;;16.30;80.00;;;;;;5046501;28;20069;-80
2022/07/23 01:45:20;;;;;;;1.88;0.60;;;16.30;80.00;;;;;;5014709;28;20439;-80
2022/07/23 01:47:50;;;;;;;2.30;0.65;;;16.30;80.10;;;;;;5004844;28;20048;-80
2022/07/23 01:50:18;;;;;;;1.73;0.60;;;16.30;80.20;;;;;;4996070;28;20135;-80
2022/07/23 01:53:14;;;;;;;1.73;0.68;;;16.20;80.20;;;;;;5011485;28;20057;-79
2022/07/23 01:55:42;;;;;;;2.60;0.90;;;16.20;80.20;;;;;;5010803;28;20069;-80
2022/07/23 01:58:10;;;;;;;1.65;0.60;;;16.20;80.20;;;;;;4994724;28;20149;-80
2022/07/23 02:00:38;;;;;;;2.97;0.65;;;16.20;80.30;;;;;;5023745;28;20100;-80
2022/07/23 02:03:05;;;;;;;1.27;0.57;;;16.20;80.20;;;;;;4971177;28;20457;-80
2022/07/23 02:05:36;;;;;;;1.38;0.70;;;16.20;80.30;;;;;;5028735;28;20089;-79
2022/07/23 02:08:03;;;;;;;1.15;0.47;;;16.20;80.30;;;;;;5009208;28;20942;-80
2022/07/23 02:10:34;;;;;;;2.28;0.88;;;16.20;80.30;;;;;;5011340;28;20097;-80
2022/07/23 02:13:03;;;;;;;2.20;0.50;;;16.10;80.40;;;;;;5018911;28;20045;-79
2022/07/23 02:15:30;;;;;;;2.05;0.50;;;16.10;80.50;;;;;;5004321;28;20148;-80
2022/07/23 02:17:58;;;;;;;1.08;0.60;;;16.10;80.60;;;;;;5051529;28;20045;-79
2022/07/23 02:20:25;;;;;;;0.88;0.35;;;16.00;80.60;;;;;;4999992;28;20052;-80
2022/07/23 02:22:52;;;;;;;0.85;0.40;;;16.00;80.70;;;;;;5020998;28;20075;-80
2022/07/23 02:25:19;;;;;;;1.45;0.50;;;16.00;80.70;;;;;;5022392;28;20068;-80
2022/07/23 02:27:46;;;;;;;3.33;0.70;;;16.00;80.80;;;;;;5035680;28;20045;-80
2022/07/23 02:30:16;;;;;;;1.60;0.63;;;15.90;80.80;;;;;;5036257;28;20045;-80
2022/07/23 02:32:46;;;;;;;1.10;0.50;;;15.90;81.00;;;;;;5035783;28;20040;-80
2022/07/23 02:35:16;;;;;;;1.67;0.50;;;15.90;81.10;;;;;;5023033;28;20443;-80
2022/07/23 02:37:43;;;;;;;2.00;0.60;;;15.80;81.80;;;;;;5023298;28;20037;-80
2022/07/23 02:40:11;;;;;;;2.00;0.70;;;15.80;81.30;;;;;;5051611;28;20053;-80
2022/07/23 02:42:40;;;;;;;0.98;0.40;;;15.80;81.40;;;;;;5031404;28;20056;-80
2022/07/23 02:45:09;;;;;;;1.02;0.50;;;15.70;81.40;;;;;;5014826;28;20515;-80
2022/07/23 02:47:36;;;;;;;1.85;0.60;;;15.70;81.50;;;;;;5042866;28;20041;-81
2022/07/23 02:50:05;;;;;;;0.85;0.40;;;15.70;81.50;;;;;;5037213;28;20131;-79
2022/07/23 02:52:33;;;;;;;1.27;0.40;;;15.70;81.60;;;;;;5038474;28;20056;-80
2022/07/23 02:55:01;;;;;;;0.93;0.40;;;15.70;81.70;;;;;;5038520;28;20040;-80
2022/07/23 02:57:28;;;;;;;2.63;0.60;;;15.60;81.70;;;;;;5038090;28;20090;-78
2022/07/23 02:59:56;;;;;;;1.73;0.50;;;15.60;81.80;;;;;;5037901;28;20060;-79
2022/07/23 03:02:23;;;;;;;2.17;0.60;;;15.60;81.90;;;;;;5037217;28;20041;-80
2022/07/23 03:04:51;;;;;;;1.52;0.40;;;15.50;82.00;;;;;;5038421;28;20041;-79
2022/07/23 03:07:18;;;;;;;0.88;0.50;;;15.50;82.00;;;;;;5053996;28;20047;-79
2022/07/23 03:09:45;;;;;;;1.40;0.30;;;15.50;82.10;;;;;;5038340;28;20041;-78
2022/07/23 03:12:12;;;;;;;2.22;0.50;;;15.50;82.20;;;;;;5038374;28;20041;-78
2022/07/23 03:14:41;;;;;;;0.73;0.30;;;15.40;82.20;;;;;;5035269;28;20057;-79
2022/07/23 03:17:09;;;;;;;0.95;0.50;;;15.40;82.20;;;;;;5025940;28;20125;-79
2022/07/23 03:19:37;;;;;;;1.05;0.40;;;15.30;82.20;;;;;;5022021;28;20045;-79
2022/07/23 03:22:05;;;;;;;2.35;0.80;;;15.30;82.30;;;;;;5025356;28;20471;-79
2022/07/23 03:27:20;;;;;;;1.52;0.50;;;15.20;82.40;;;;;;5027782;28;20040;-80
2022/07/23 03:29:47;;;;;;;3.17;0.43;;;15.20;82.50;;;;;;5035227;28;20349;-79
2022/07/23 03:32:14;;;;;;;1.48;0.30;;;15.10;82.60;;;;;;5019921;28;20040;-79
2022/07/23 03:34:41;;;;;;;2.10;0.40;;;15.10;82.70;;;;;;5037556;28;20051;-79
2022/07/23 03:37:09;;;;;;;0.85;0.30;;;15.10;82.80;;;;;;5022028;28;20514;-80
2022/07/23 03:39:36;;;;;;;0.88;0.45;;;15.10;82.80;;;;;;5041221;28;20424;-79
2022/07/23 03:42:04;;;;;;;1.40;0.40;;;15.00;82.80;;;;;;5026180;28;20051;-79
2022/07/23 03:44:31;;;;;;;1.63;0.52;;;15.00;82.90;;;;;;5052784;28;20095;-79
2022/07/23 03:46:58;;;;;;;1.77;0.32;;;15.00;82.90;;;;;;5037645;28;20123;-79
2022/07/23 03:49:25;;;;;;;1.15;0.40;;;15.00;83.10;;;;;;5054401;28;20044;-80
2022/07/23 03:51:53;;;;;;;0.85;0.40;;;15.00;83.20;;;;;;5023843;28;20056;-80
2022/07/23 03:54:20;;;;;;;1.08;0.30;;;14.90;83.10;;;;;;5040791;28;20049;-80
2022/07/23 03:56:47;;;;;;;0.75;0.30;;;14.90;83.10;;;;;;5021425;28;20045;-78
2022/07/23 03:59:14;;;;;;;1.25;0.40;;;15.00;83.20;;;;;;5020571;28;20049;-78
2022/07/23 04:01:47;;;;;;;0.60;0.30;;;14.90;83.20;;;;;;5052955;28;20489;-79
2022/07/23 04:04:15;;;;;;;0.98;0.20;;;14.90;83.30;;;;;;5058596;28;20040;-79
2022/07/23 04:06:44;;;;;;;2.60;0.40;;;14.90;83.30;;;;;;5038067;28;20131;-79
2022/07/23 04:09:11;;;;;;;0.90;0.35;;;14.90;83.40;;;;;;5037927;28;20041;-79
2022/07/23 04:11:38;;;;;;;0.63;0.20;;;14.90;83.40;;;;;;5037794;28;20515;-79
2022/07/23 04:14:07;;;;;;;1.27;0.40;;;14.90;83.40;;;;;;5041528;28;20055;-79
2022/07/23 04:16:34;;;;;;;3.05;0.40;;;14.90;83.40;;;;;;5033634;28;20044;-79
2022/07/23 04:19:01;;;;;;;0.73;0.40;;;14.90;83.40;;;;;;5034175;28;20131;-78
2022/07/23 04:21:33;;;;;;;0.60;0.20;;;14.90;83.50;;;;;;5052714;28;20056;-78
2022/07/23 04:24:00;;;;;;;0.88;0.30;;;14.90;83.50;;;;;;5028613;28;20377;-80
2022/07/23 04:26:27;;;;;;;0.60;0.35;;;14.90;83.60;;;;;;5035067;28;20132;-79
2022/07/23 04:28:54;;;;;;;2.75;0.30;;;14.90;83.60;;;;;;5022468;28;20045;-80
2022/07/23 04:31:21;;;;;;;1.73;0.40;;;14.90;83.70;;;;;;5008745;28;20060;-80
2022/07/23 04:33:49;;;;;;;0.47;0.20;;;15.00;83.80;;;;;;5033375;28;20424;-79
2022/07/23 04:36:16;;;;;;;0.43;0.22;;;15.00;83.80;;;;;;5039681;28;20136;-80
2022/07/23 04:38:46;;;;;;;0.77;0.30;;;15.00;84.00;;;;;;5054546;28;20055;-80
2022/07/23 04:41:19;;;;;;;1.17;0.43;;;15.10;83.80;;;;;;5021968;28;20044;-81
2022/07/23 04:43:47;;;;;;;1.27;0.40;;;15.10;83.80;;;;;;5028125;28;20045;-80
2022/07/23 04:46:14;;;;;;;0.60;0.30;;;15.10;83.80;;;;;;5058845;28;20135;-80
2022/07/23 04:48:47;;;;;;;0.70;0.30;;;15.10;83.70;;;;;;5026574;28;20060;-80
2022/07/23 04:51:14;;;;;;;0.63;0.35;;;15.20;83.70;;;;;;5024452;28;20076;-79
2022/07/23 04:53:42;;;;;;;0.90;0.30;;;15.20;83.70;;;;;;5040826;28;20032;-80
2022/07/23 04:56:11;;;;;;;1.25;0.40;;;15.30;83.70;;;;;;5041313;28;20084;-80
2022/07/23 04:58:44;;;;;;;0.93;0.40;;;15.50;83.60;;;;;;5053026;28;20096;-79
2022/07/23 05:01:11;;;;;;;2.60;0.30;;;15.60;83.30;;;;;;5045706;28;20053;-79
2022/07/23 05:03:38;;;;;;;0.98;0.30;;;15.70;83.20;;;;;;5039149;28;20044;-80
2022/07/23 05:06:05;;;;;;;0.70;0.20;;;15.70;83.20;;;;;;5033465;28;20057;-80
2022/07/23 05:08:32;;;;;;;0.70;0.30;;;15.70;83.20;;;;;;5054030;28;20050;-79
2022/07/23 05:10:59;;;;;;;1.45;0.30;;;15.70;83.20;;;;;;5026355;28;20492;-79
2022/07/23 05:13:28;;;;;;;0.75;0.20;;;15.70;83.30;;;;;;5024664;28;20052;-79
2022/07/23 05:15:55;;;;;;;1.02;0.40;;;15.80;83.30;;;;;;5001347;28;20094;-79
2022/07/23 05:18:23;;;;;;;0.80;0.32;;;15.80;83.30;;;;;;5054514;28;20412;-79
2022/07/23 05:20:51;;;;;;;1.10;0.32;;;15.90;83.20;;;;;;5032496;28;20479;-80
2022/07/23 05:23:20;;;;;;;0.68;0.30;;;15.90;83.20;;;;;;5039993;28;20132;-80
2022/07/23 05:25:48;;;;;;;1.38;0.40;;;16.00;83.10;;;;;;5039713;28;20550;-79
2022/07/23 05:28:16;;;;;;;0.65;0.30;;;16.10;83.00;;;;;;5023516;28;20110;-79
2022/07/23 05:30:48;;;;;;;0.47;0.30;;;16.10;82.80;;;;;;5040505;28;20407;-78
2022/07/23 05:33:19;;;;;;;0.65;0.20;;;16.20;82.70;;;;;;5040194;28;20071;-79
2022/07/23 05:35:47;;;;;;;1.10;0.20;;;16.30;82.60;;;;;;5052497;28;20064;-79
2022/07/23 05:38:25;;;;;;;1.33;0.30;;;16.40;82.40;;;;;;5018217;28;20044;-78
2022/07/23 05:40:54;;;;;;;0.47;0.25;;;16.40;82.20;;;;;;5018480;28;20049;-80
2022/07/23 05:43:21;;;;;;;1.23;0.22;;;16.50;82.00;;;;;;5021641;28;20055;-81
2022/07/23 05:45:48;;;;;;;1.08;0.25;;;16.60;81.90;;;;;;5035713;28;20564;-82
2022/07/23 05:48:15;;;;;;;0.52;0.28;;;16.70;81.70;;;;;;5033102;28;20037;-80
2022/07/23 05:50:55;;;;;;;0.70;0.30;;;16.80;81.50;;;;;;5043603;28;20057;-81
2022/07/23 05:53:30;;;;;;;1.08;0.20;;;16.90;81.40;;;;;;5024440;28;20086;-79
2022/07/23 05:56:05;;;;;;;0.52;0.20;;;17.00;81.00;;;;;;5010161;28;20094;-79
2022/07/23 05:58:32;;;;;;;0.55;0.20;;;17.10;80.70;;;;;;5039122;28;20052;-82
2022/07/23 06:00:59;;;;;;;1.40;0.32;;;17.20;80.40;;;;;;5064368;28;20502;-81
2022/07/23 06:03:30;;;;;;;1.45;0.40;;;17.30;80.20;;;;;;5058357;28;20053;-81
2022/07/23 06:05:58;;;;;;;0.60;0.20;;;17.40;80.00;;;;;;5030218;28;20052;-81
2022/07/23 06:08:25;;;;;;;0.38;0.22;;;17.50;79.80;;;;;;5039258;28;20052;-79
2022/07/23 06:10:53;;;;;;;0.70;0.47;;;17.60;79.60;;;;;;5039118;28;20044;-80
2022/07/23 06:13:20;;;;;;;0.70;0.20;;;17.70;79.50;;;;;;5056445;28;20059;-81
2022/07/23 06:15:48;;;;;;;0.28;0.20;;;17.80;79.20;;;;;;5038906;28;20068;-80
2022/07/23 06:18:15;;;;;;;1.15;0.38;;;17.90;79.10;;;;;;5033498;28;20052;-81
2022/07/23 06:20:42;;;;;;;1.20;0.22;;;18.10;78.90;;;;;;5022018;28;20044;-80
2022/07/23 06:23:12;;;;;;;0.93;0.30;;;18.10;78.70;;;;;;5005108;28;20109;-81
2022/07/23 06:25:40;;;;;;;1.15;0.30;;;18.20;78.60;;;;;;5051914;28;20041;-80
2022/07/23 06:28:08;;;;;;;0.73;0.20;;;18.30;78.50;;;;;;5038706;28;20049;-80
2022/07/23 06:30:35;;;;;;;0.77;0.30;;;18.30;78.30;;;;;;5022480;28;20068;-84
2022/07/23 06:33:03;;;;;;;0.98;0.30;;;18.40;78.10;;;;;;5039183;28;20047;-82
2022/07/23 06:35:30;;;;;;;0.38;0.28;;;18.50;78.00;;;;;;5029467;28;20106;-80
2022/07/23 06:37:57;;;;;;;1.23;0.30;;;18.50;77.80;;;;;;4999572;28;20079;-82
2022/07/23 06:40:24;;;;;;;0.70;0.30;;;18.60;77.60;;;;;;5022144;28;20110;-80
2022/07/23 06:42:54;;;;;;;1.58;0.30;;;18.60;78.00;;;;;;5055388;28;20048;-81
2022/07/23 06:45:22;;;;;;;1.10;0.20;;;18.70;77.30;;;;;;5015949;28;20045;-81
2022/07/23 06:47:49;;;;;;;1.55;0.30;;;18.70;77.20;;;;;;5035632;28;20045;-81
2022/07/23 06:50:18;;;;;;;0.80;0.30;;;18.80;77.00;;;;;;5038416;28;20044;-80
2022/07/23 06:52:45;;;;;;;0.57;0.22;;;18.90;76.90;;;;;;5021594;28;20051;-83
2022/07/23 06:55:12;;;;;;;0.68;0.20;;;19.00;76.80;;;;;;5038042;28;20049;-82
2022/07/23 06:57:40;;;;;;;1.17;0.43;;;19.10;76.50;;;;;;5047379;28;20056;-79
2022/07/23 07:00:08;;;;;;;0.73;0.35;;;19.10;75.90;;;;;;5021933;28;20804;-80
2022/07/23 07:02:37;;;;;;;0.65;0.32;;;19.20;75.80;;;;;;5035379;28;20496;-79
2022/07/23 07:05:05;;;;;;;1.00;0.40;;;19.10;75.60;;;;;;5036518;28;20064;-79
2022/07/23 07:07:33;;;;;;;0.73;0.30;;;19.20;75.60;;;;;;5035021;28;20467;-79
2022/07/23 07:10:04;;;;;;;0.85;0.40;;;19.20;75.40;;;;;;5066751;28;20482;-79
2022/07/23 07:12:31;;;;;;;0.90;0.40;;;19.30;75.20;;;;;;5038160;28;20040;-78
2022/07/23 07:14:59;;;;;;;0.90;0.30;;;19.40;75.10;;;;;;5035189;28;20048;-78
2022/07/23 07:17:26;;;;;;;1.10;0.22;;;19.50;74.80;;;;;;5053810;28;20041;-79
2022/07/23 07:19:53;;;;;;;1.23;0.40;;;19.50;74.70;;;;;;5022468;28;20049;-82
2022/07/23 07:22:20;;;;;;;1.95;0.40;;;19.50;74.50;;;;;;5036254;28;20045;-79
2022/07/23 07:24:47;;;;;;;0.90;0.40;;;19.60;74.40;;;;;;5038227;28;20143;-79
2022/07/23 07:27:14;;;;;;;1.52;0.30;;;19.60;74.00;;;;;;5021245;28;20036;-77
2022/07/23 07:29:49;;;;;;;1.95;0.47;;;19.60;73.90;;;;;;5037505;28;20093;-76
2022/07/23 07:32:16;;;;;;;0.90;0.40;;;19.60;73.20;;;;;;5053619;28;20080;-77
2022/07/23 07:35:05;;;;;;;0.82;0.40;;;19.60;73.40;;;;;;5024972;28;20455;-76
2022/07/23 07:37:32;;;;;;;0.52;0.40;;;19.60;73.10;;;;;;5041228;28;20051;-76
2022/07/23 07:39:59;;;;;;;1.50;0.60;;;19.70;72.80;;;;;;5018942;28;20037;-77
2022/07/23 07:42:26;;;;;;;0.85;0.40;;;19.70;72.80;;;;;;5035137;28;20067;-77
2022/07/23 07:44:53;;;;;;;0.93;0.40;;;19.80;72.50;;;;;;5040089;28;20485;-77
2022/07/23 07:47:20;;;;;;;0.60;0.30;;;19.90;72.30;;;;;;5040808;28;20114;-77
2022/07/23 07:49:47;;;;;;;1.02;0.40;;;20.00;72.30;;;;;;5054731;28;20040;-77
2022/07/23 07:52:14;;;;;;;1.15;0.40;;;20.10;71.80;;;;;;5040859;28;20059;-77
2022/07/23 07:54:44;;;;;;;1.55;0.20;;;20.20;71.90;;;;;;5024729;28;20044;-77
2022/07/23 07:57:11;;;;;;;1.95;0.30;;;20.40;71.70;;;;;;5057788;28;20040;-77
2022/07/23 07:59:38;;;;;;;1.30;0.38;;;20.40;71.10;;;;;;5042636;28;20045;-77
2022/07/23 08:02:06;;;;;;;1.77;0.30;;;20.40;70.80;;;;;;5043891;28;20085;-77
2022/07/23 08:04:33;;;;;;;0.85;0.40;;;20.40;70.50;;;;;;5014975;28;20040;-77
2022/07/23 08:07:00;;;;;;;1.05;0.40;;;20.40;70.50;;;;;;5023206;28;20045;-77
2022/07/23 08:09:27;;;;;;;1.95;0.30;;;20.50;70.60;;;;;;5037518;28;20044;-77
2022/07/23 08:11:54;;;;;;;0.50;0.30;;;20.60;70.70;;;;;;5041040;28;20546;-77
2022/07/23 08:14:21;;;;;;;0.70;0.30;;;20.70;71.10;;;;;;5004849;28;20045;-76
2022/07/23 08:16:48;;;;;;;0.85;0.40;;;20.90;70.20;;;;;;5053782;28;20044;-76
2022/07/23 08:19:35;;;;;;;1.58;0.40;;;20.90;69.10;;;;;;5027229;28;20037;-76
2022/07/23 08:22:02;;;;;;;0.77;0.30;;;20.90;69.30;;;;;;5040585;28;20044;-76
2022/07/23 08:24:29;;;;;;;1.45;0.40;;;20.90;69.00;;;;;;5024341;28;20070;-75
2022/07/23 08:26:59;;;;;;;0.55;0.30;;;21.00;69.10;;;;;;5039220;28;20132;-80
2022/07/23 08:29:26;;;;;;;1.60;0.45;;;21.20;68.90;;;;;;5031652;28;20470;-77
2022/07/23 08:31:53;;;;;;;0.57;0.22;;;21.20;68.60;;;;;;5041173;28;20064;-76
2022/07/23 08:34:20;;;;;;;0.75;0.22;;;21.30;68.50;;;;;;5040208;28;20041;-76
2022/07/23 08:36:47;;;;;;;0.80;0.38;;;21.40;68.30;;;;;;5024179;28;20044;-76
2022/07/23 08:39:14;;;;;;;1.10;0.40;;;21.50;67.40;;;;;;5039854;28;20048;-74
2022/07/23 08:41:44;;;;;;;2.42;0.73;;;21.40;67.30;;;;;;5052699;28;20041;-77
2022/07/23 08:44:12;;;;;;;1.60;0.50;;;21.50;67.00;;;;;;5044522;28;20045;-76
2022/07/23 08:46:39;;;;;;;0.85;0.30;;;21.60;67.30;;;;;;5066725;28;20119;-77
2022/07/23 08:49:10;;;;;;;0.47;0.30;;;21.70;67.20;;;;;;5049745;28;20044;-76
2022/07/23 08:51:41;;;;;;;0.40;0.30;;;21.90;67.10;;;;;;5049827;28;20052;-77
2022/07/23 08:54:08;;;;;;;0.90;0.25;;;22.00;66.80;;;;;;5037477;28;20071;-77
2022/07/23 08:56:35;;;;;;;1.55;0.50;;;22.10;66.60;;;;;;5053566;28;20052;-78
2022/07/23 08:59:02;;;;;;;1.48;0.20;;;22.20;66.30;;;;;;5023389;28;20041;-79
2022/07/23 09:01:29;;;;;;;0.60;0.30;;;22.30;66.10;;;;;;5053722;28;20056;-77
2022/07/23 09:03:57;;;;;;;0.47;0.20;;;22.40;65.80;;;;;;5033879;28;20041;-77
2022/07/23 09:06:24;;;;;;;1.05;0.38;;;22.40;65.60;;;;;;5050726;28;20086;-77
2022/07/23 09:08:51;;;;;;;0.73;0.32;;;22.40;64.80;;;;;;5030100;28;20569;-77
2022/07/23 09:11:18;;;;;;;2.58;0.50;;;22.40;64.80;;;;;;5050164;28;20048;-77
2022/07/23 09:13:53;;;;;;;0.65;0.35;;;22.40;64.60;;;;;;5036789;28;20107;-77
2022/07/23 09:16:29;;;;;;;1.05;0.40;;;22.50;65.00;;;;;;5020051;28;20041;-77
2022/07/23 09:18:59;;;;;;;0.85;0.40;;;22.50;64.00;;;;;;5053128;28;20515;-79
2022/07/23 09:21:36;;;;;;;1.30;0.32;;;22.60;64.20;;;;;;5050140;28;20111;-80
2022/07/23 09:24:08;;;;;;;0.30;0.28;;;22.70;64.00;;;;;;5062373;28;20058;-82
2022/07/23 09:26:37;;;;;;;1.13;0.43;;;22.90;64.10;;;;;;5050971;28;20037;-79
2022/07/23 09:29:18;;;;;;;1.45;0.30;;;23.00;64.00;;;;;;5034843;28;20141;-78
2022/07/23 09:31:49;;;;;;;1.45;0.47;;;23.20;63.80;;;;;;5050281;28;20096;-78
2022/07/23 09:34:32;;;;;;;1.27;0.37;;;23.30;63.10;;;;;;5065781;28;20045;-76
2022/07/23 09:37:14;;;;;;;0.70;0.40;;;23.30;62.90;;;;;;5045949;28;20795;-77
2022/07/23 09:39:47;;;;;;;0.65;0.40;;;23.20;62.40;;;;;;5064169;28;20048;-77
2022/07/23 09:42:15;;;;;;;1.05;0.47;;;23.10;62.40;;;;;;5051122;28;20076;-81
2022/07/23 09:44:45;;;;;;;1.55;0.32;;;23.00;62.30;;;;;;5062911;28;20049;-76
2022/07/23 09:47:12;;;;;;;1.75;0.35;;;23.00;62.50;;;;;;5057038;28;20046;-76
2022/07/23 09:50:19;;;;;;;0.70;0.25;;;23.10;62.70;;;;;;5038426;28;20048;-76
2022/07/23 09:52:53;;;;;;;0.90;0.30;;;23.40;62.50;;;;;;5021884;28;20497;-76
2022/07/23 09:55:35;;;;;;;0.50;0.30;;;23.50;62.50;;;;;;5049902;28;20083;-78
2022/07/23 09:58:03;;;;;;;0.93;0.35;;;23.60;61.70;;;;;;5032479;28;20073;-77
2022/07/23 10:00:31;;;;;;;0.70;0.40;;;23.70;61.90;;;;;;5033471;28;20041;-76
2022/07/23 10:03:00;;;;;;;0.90;0.30;;;23.70;61.20;;;;;;5048732;28;20119;-77
2022/07/23 10:05:30;;;;;;;0.95;0.22;;;23.80;61.30;;;;;;5036439;28;20036;-77
2022/07/23 10:08:18;;;;;;;1.50;0.30;;;23.90;61.00;;;;;;5047228;28;20040;-77
2022/07/23 10:11:04;;;;;;;1.08;0.35;;;23.90;60.70;;;;;;5051428;28;20048;-77
2022/07/23 10:13:55;;;;;;;1.58;0.60;;;23.90;60.30;;;;;;5065891;28;20132;-78
2022/07/23 10:16:32;;;;;;;1.02;0.40;;;23.80;59.50;;;;;;5037167;28;20196;-76
2022/07/23 10:19:02;;;;;;;0.35;0.30;;;23.70;59.70;;;;;;5041028;28;20044;-76
2022/07/23 10:21:50;;;;;;;0.50;0.32;;;23.90;60.00;;;;;;5051445;28;20048;-76
2022/07/23 10:24:35;;;;;;;1.00;0.30;;;24.10;59.40;;;;;;5033829;28;20442;-76
2022/07/23 10:27:24;;;;;;;0.73;0.30;;;24.10;58.70;;;;;;5043355;28;20531;-76
2022/07/23 10:30:06;;;;;;;0.75;0.30;;;24.10;58.70;;;;;;5049139;28;20128;-76
2022/07/23 10:32:46;;;;;;;1.38;0.60;;;24.20;58.80;;;;;;5030267;28;20045;-80
2022/07/23 10:35:29;;;;;;;2.00;0.30;;;24.10;58.10;;;;;;5044707;28;20041;-78
2022/07/23 10:38:12;;;;;;;0.45;0.40;;;24.30;58.40;;;;;;5050486;28;20072;-76
2022/07/23 10:40:58;;;;;;;0.82;0.30;;;24.40;58.40;;;;;;5048048;28;20051;-75
2022/07/23 10:43:26;;;;;;;1.88;0.45;;;24.60;58.40;;;;;;5046983;28;20128;-76
2022/07/23 10:45:54;;;;;;;0.77;0.40;;;24.70;57.80;;;;;;5046931;28;20055;-76
2022/07/23 10:48:23;;;;;;;0.90;0.30;;;24.70;57.60;;;;;;5010156;28;20052;-76
2022/07/23 10:51:10;;;;;;;1.13;0.40;;;24.90;57.40;;;;;;5050609;28;20516;-74
2022/07/23 10:54:04;;;;;;;1.45;0.40;;;24.90;57.00;;;;;;5031188;28;20080;-75
2022/07/23 10:56:56;;;;;;;1.15;0.50;;;24.90;57.00;;;;;;5044278;28;20056;-75
2022/07/23 10:59:23;;;;;;;0.65;0.40;;;25.10;57.10;;;;;;5058059;28;20045;-75
2022/07/23 11:01:50;;;;;;;0.57;0.32;;;25.20;56.80;;;;;;5057662;28;20052;-77
2022/07/23 11:04:19;;;;;;;1.13;0.40;;;25.30;56.60;;;;;;5022254;28;20122;-76
2022/07/23 11:06:49;;;;;;;0.88;0.40;;;25.30;56.20;;;;;;5031564;28;20033;-80
2022/07/23 11:09:30;;;;;;;0.85;0.55;;;25.30;56.30;;;;;;5024956;28;20049;-79
2022/07/23 11:12:13;;;;;;;1.90;0.40;;;25.50;56.00;;;;;;5058787;28;20258;-80
2022/07/23 11:15:07;;;;;;;0.90;0.28;;;25.60;56.10;;;;;;5050736;28;20037;-80
2022/07/23 11:18:01;;;;;;;0.60;0.40;;;25.60;55.70;;;;;;5037503;28;20046;-81
2022/07/23 11:20:29;;;;;;;0.70;0.30;;;25.70;56.00;;;;;;5051094;28;20061;-78
2022/07/23 11:22:58;;;;;;;0.82;0.30;;;25.90;55.80;;;;;;5051034;28;20036;-80
2022/07/23 11:25:25;;;;;;;1.05;0.40;;;26.00;55.50;;;;;;5046818;28;20083;-79
2022/07/23 11:27:52;;;;;;;0.88;0.40;;;25.80;55.30;;;;;;5052304;28;20041;-81
2022/07/23 11:30:28;;;;;;;0.50;0.35;;;25.80;55.50;;;;;;5018428;28;20049;-82
2022/07/23 11:33:16;;;;;;;0.80;0.40;;;25.80;55.20;;;;;;5034352;28;20048;-80
2022/07/23 11:36:03;;;;;;;1.40;0.57;;;25.90;55.00;;;;;;5056734;28;20075;-78
2022/07/23 11:38:32;;;;;;;0.95;0.50;;;26.00;54.10;;;;;;5046988;28;20059;-81
2022/07/23 11:40:59;;;;;;;2.05;0.60;;;26.00;54.00;;;;;;5051243;28;20515;-78
2022/07/23 11:43:26;;;;;;;1.05;0.40;;;26.10;53.70;;;;;;5051154;28;20520;-78
2022/07/23 11:45:58;;;;;;;1.52;0.80;;;26.10;53.50;;;;;;5049663;28;20095;-80
2022/07/23 11:48:30;;;;;;;;;;;26.20;52.80;;;;;;5047761;28;20049;-79
2022/07/23 11:50:58;;;;;;;1.13;0.55;;;26.10;53.00;;;;;;5024888;28;20004;-79
2022/07/23 11:53:28;;;;;;;2.50;0.60;;;26.00;53.00;;;;;;5028536;28;20037;-80
2022/07/23 11:56:04;;;;;;;1.08;0.40;;;25.80;53.10;;;;;;5027399;28;20046;-79
2022/07/23 11:58:31;;;;;;;0.68;0.50;;;25.90;53.00;;;;;;5028741;28;20073;-83
2022/07/23 12:00:59;;;;;;;0.60;0.40;;;25.90;53.00;;;;;;5004973;28;20519;-82
2022/07/23 12:03:27;;;;;;;0.80;0.40;;;25.90;52.90;;;;;;5030775;28;20440;-80
2022/07/23 12:05:59;;;;;;;0.80;0.40;;;26.00;52.80;;;;;;5015175;28;20405;-79
2022/07/23 12:08:26;;;;;;;0.77;0.50;;;26.50;52.00;;;;;;4996742;28;20046;-81
2022/07/23 12:10:53;;;;;;;1.05;0.40;;;26.80;51.80;;;;;;4995646;28;20101;-80
2022/07/23 12:13:22;;;;;;;0.82;0.50;;;26.90;51.20;;;;;;5014923;28;20450;-81
2022/07/23 12:15:56;;;;;;;1.00;0.50;;;26.90;51.00;;;;;;5031099;28;20125;-79
2022/07/23 12:18:26;;;;;;;0.63;0.40;;;27.20;51.20;;;;;;5012108;28;20124;-83
2022/07/23 12:20:56;;;;;;;1.08;0.60;;;27.60;50.50;;;;;;5024180;28;20046;-80
2022/07/23 12:40:59;;;;;;;1.35;0.50;;;29.70;47.80;;;;;;5006748;24;20158;-83
2022/07/23 12:43:36;;;;;;;0.85;0.50;;;30.00;47.70;;;;;;5208016;24;20159;-82
2022/07/23 12:46:11;;;;;;;0.60;0.40;;;30.30;47.50;;;;;;4821570;29;20452;-75
2022/07/23 12:48:51;;;;;;;0.98;0.40;;;30.70;47.30;;;;;;4811089;29;20140;-76
2022/07/23 12:51:32;;;;;;;1.40;0.60;;;31.20;47.10;;;;;;4840217;29;20360;-75
2022/07/23 12:54:08;;;;;;;1.17;0.40;;;31.50;46.40;;;;;;4820055;29;20119;-75
2022/07/23 12:56:43;;;;;;;0.85;0.50;;;31.60;46.20;;;;;;4827519;29;20487;-76
2022/07/23 12:59:16;;;;;;;1.50;0.50;;;31.70;45.80;;;;;;4836699;29;20049;-76
2022/07/23 13:01:53;;;;;;;1.15;0.40;;;31.80;45.40;;;;;;4817422;29;20120;-75
2022/07/23 13:04:22;;;;;;;1.05;0.40;;;31.90;44.90;;;;;;4818714;29;20056;-77
2022/07/23 13:06:57;;;;;;;0.82;0.40;;;31.80;44.50;;;;;;4834104;29;20041;-76
2022/07/23 13:09:28;;;;;;;1.88;0.70;;;31.90;44.50;;;;;;4831958;29;20133;-75
2022/07/23 13:12:00;;;;;;;1.92;0.70;;;31.80;43.90;;;;;;4829643;29;20042;-76
2022/07/23 13:14:28;;;;;;;1.08;0.55;;;31.80;43.20;;;;;;4796791;29;20134;-76
2022/07/23 13:16:56;;;;;;;0.73;0.60;;;30.90;44.00;;;;;;4815430;29;20050;-76
2022/07/23 13:19:26;;;;;;;0.77;0.40;;;30.50;44.40;;;;;;4833124;29;20066;-76
2022/07/23 13:21:54;;;;;;;1.88;0.63;;;30.50;44.80;;;;;;4828982;29;20081;-76
2022/07/23 13:24:27;;;;;;;1.52;0.40;;;29.90;44.20;;;;;;4816192;29;20103;-76